Time;durP1;ratioP1;P1;durP2;ratioP2;P2;SDS_P1;SDS_P2;PMS_P1;PMS_P2;Temp;Humidity;BMP_temperature;BMP_pressure;BME280_temperature;BME280_humidity;BME280_pressure;Samples;Min_cycle;Max_cycle;Signal;HPM_P1;HPM_P2
2023/09/01 00:02:04;;;;;;;16.10;7.13;;;;;;;-146.27;88.94;82094.94;5050340;28;20037;-69
2023/09/01 00:04:30;;;;;;;20.05;8.00;;;;;;;-146.27;88.79;82064.81;5048897;28;20033;-69
2023/09/01 00:06:55;;;;;;;18.23;7.18;;;;;;;-146.27;88.44;82070.81;5040854;28;20025;-69
2023/09/01 00:09:21;;;;;;;14.05;6.57;;;;;;;-146.27;88.05;82090.91;5046651;28;20025;-69
2023/09/01 00:11:46;;;;;;;14.30;6.60;;;;;;;-146.27;87.64;82074.84;5043568;28;20026;-67
2023/09/01 00:14:11;;;;;;;10.68;6.15;;;;;;;-146.27;87.79;82119.03;5046920;28;20044;-67
2023/09/01 00:16:37;;;;;;;10.50;5.53;;;;;;;-146.27;87.97;82115.00;5035908;28;20416;-67
2023/09/01 00:19:02;;;;;;;15.45;5.65;;;;;;;-146.27;88.36;82072.84;5051337;28;20021;-67
2023/09/01 00:21:27;;;;;;;13.02;5.20;;;;;;;-146.27;88.00;82054.75;5045432;28;20079;-68
2023/09/01 00:23:53;;;;;;;9.70;4.63;;;;;;;-146.27;87.38;82078.84;5040222;28;20107;-69
2023/09/01 00:26:18;;;;;;;13.15;4.65;;;;;;;-146.27;87.16;82082.88;5049961;28;20107;-67
2023/09/01 00:28:43;;;;;;;11.27;4.60;;;;;;;-146.27;86.96;82104.97;5043337;28;20021;-66
2023/09/01 00:31:09;;;;;;;8.88;4.75;;;;;;;-146.27;86.66;82086.91;5049084;28;20028;-67
2023/09/01 00:33:34;;;;;;;12.30;4.40;;;;;;;-146.27;86.25;82135.09;5039207;28;20029;-69
2023/09/01 00:36:00;;;;;;;9.65;3.80;;;;;;;-146.27;85.18;82106.97;5034740;28;20105;-69
2023/09/01 00:38:26;;;;;;;10.10;3.83;;;;;;;-146.27;85.60;82113.00;5045850;28;20107;-69
2023/09/01 00:40:52;;;;;;;15.38;4.80;;;;;;;-146.27;85.46;82119.03;5050622;28;20107;-67
2023/09/01 00:43:18;;;;;;;12.73;3.70;;;;;;;-146.27;85.56;82111.00;5049203;28;20078;-68
2023/09/01 00:45:43;;;;;;;9.98;4.10;;;;;;;-146.27;86.29;82115.00;5048359;28;20029;-68
2023/09/01 00:48:11;;;;;;;15.85;4.32;;;;;;;-146.27;85.77;82092.91;5033488;28;20025;-68
2023/09/01 00:50:37;;;;;;;13.02;3.85;;;;;;;-146.27;85.24;82090.91;5042463;28;20024;-70
2023/09/01 00:53:05;;;;;;;14.13;4.05;;;;;;;-146.27;84.72;82086.91;5042831;28;20029;-68
2023/09/01 00:55:32;;;;;;;11.30;4.00;;;;;;;-146.27;83.73;82109.00;5048931;28;20032;-68
2023/09/01 00:57:57;;;;;;;11.10;3.72;;;;;;;-146.27;84.02;82098.94;5049496;28;20431;-68
2023/09/01 01:00:23;;;;;;;9.07;3.67;;;;;;;-146.27;83.62;82141.13;5041423;28;20144;-70
2023/09/01 01:02:49;;;;;;;11.30;3.78;;;;;;;-146.27;83.70;82119.03;5050872;28;20029;-68
2023/09/01 01:05:15;;;;;;;10.48;3.55;;;;;;;-146.27;83.50;82139.13;5039551;28;20016;-69
2023/09/01 01:08:14;;;;;;;8.32;3.50;;;;;;;-146.27;83.62;82117.03;5050099;28;20028;-68
2023/09/01 01:11:09;;;;;;;7.88;3.75;;;;;;;-146.27;83.34;82161.22;5042646;28;20057;-70
2023/09/01 01:13:36;;;;;;;14.35;4.05;;;;;;;-146.27;83.60;82129.06;5035361;28;20052;-68
2023/09/01 01:16:03;;;;;;;9.68;3.35;;;;;;;-146.27;83.90;82139.13;5039441;28;20460;-68
2023/09/01 01:18:29;;;;;;;9.75;4.03;;;;;;;-146.27;83.28;82159.22;5049400;28;20040;-68
2023/09/01 01:21:06;;;;;;;15.05;3.72;;;;;;;-146.27;84.58;82171.25;5040317;28;20025;-69
2023/09/01 01:23:32;;;;;;;7.82;3.70;;;;;;;-146.27;84.79;82115.00;5033963;28;20041;-68
2023/09/01 01:25:58;;;;;;;13.88;4.03;;;;;;;-146.27;84.21;82127.06;5046649;28;20400;-69
2023/09/01 01:28:23;;;;;;;13.75;4.72;;;;;;;-146.27;83.75;82151.16;5039877;28;20108;-70
2023/09/01 01:30:49;;;;;;;10.52;4.10;;;;;;;-146.27;85.10;82131.09;5034198;28;20091;-66
2023/09/01 01:33:21;;;;;;;9.52;3.78;;;;;;;-146.27;84.90;82151.16;5043086;28;20037;-66
2023/09/01 01:36:11;;;;;;;8.27;3.60;;;;;;;-146.27;85.86;82175.28;5033043;28;20029;-66
2023/09/01 01:38:40;;;;;;;8.00;3.35;;;;;;;-146.27;86.37;82137.13;5041643;28;20044;-66
2023/09/01 01:41:18;;;;;;;10.45;3.65;;;;;;;-146.27;86.92;82143.13;5036946;28;20032;-67
2023/09/01 01:43:45;;;;;;;9.10;3.40;;;;;;;-146.27;87.14;82119.03;5030484;28;20033;-67
2023/09/01 01:46:11;;;;;;;9.82;3.97;;;;;;;-146.27;86.62;82163.22;5046934;28;20021;-65
2023/09/01 01:48:39;;;;;;;9.80;3.53;;;;;;;-146.27;86.12;82171.25;5031884;28;20025;-67
2023/09/01 01:51:05;;;;;;;10.07;4.45;;;;;;;-146.27;85.90;82167.25;5043519;28;20021;-67
2023/09/01 01:53:33;;;;;;;13.10;4.13;;;;;;;-146.27;85.45;82159.22;5047589;28;20029;-67
2023/09/01 01:55:58;;;;;;;14.07;5.57;;;;;;;-146.27;85.04;82155.19;5036119;28;20029;-67
2023/09/01 01:58:24;;;;;;;13.32;4.43;;;;;;;-146.27;85.39;82161.22;5034519;28;20033;-67
2023/09/01 02:00:49;;;;;;;11.48;4.45;;;;;;;-146.27;84.77;82163.22;5032835;28;20053;-67
2023/09/01 02:03:14;;;;;;;14.02;4.50;;;;;;;-146.27;85.91;82205.41;5036163;28;20029;-67
2023/09/01 02:05:40;;;;;;;9.30;3.33;;;;;;;-146.27;87.00;82195.38;5046135;28;20414;-67
2023/09/01 02:08:05;;;;;;;8.82;3.78;;;;;;;-146.27;87.51;82175.28;5044726;28;20123;-66
2023/09/01 02:10:31;;;;;;;12.60;3.92;;;;;;;-146.27;87.62;82207.41;5046363;28;20075;-67
2023/09/01 02:12:57;;;;;;;16.23;5.18;;;;;;;-146.27;87.16;82199.38;5049140;28;20086;-66
2023/09/01 02:15:22;;;;;;;14.55;4.68;;;;;;;-146.27;86.50;82215.44;5043943;28;20041;-67
2023/09/01 02:17:48;;;;;;;14.50;4.43;;;;;;;-146.27;86.66;82247.59;5045525;28;20059;-69
2023/09/01 02:20:16;;;;;;;19.10;5.30;;;;;;;-146.27;85.83;82199.38;5038544;28;20112;-66
2023/09/01 02:22:43;;;;;;;12.63;4.78;;;;;;;-146.27;85.37;82189.34;5042075;28;20040;-67
2023/09/01 02:25:08;;;;;;;11.65;4.50;;;;;;;-146.27;85.78;82201.38;5039579;28;20032;-67
2023/09/01 02:27:37;;;;;;;13.13;5.55;;;;;;;-146.27;86.49;82183.31;5051358;28;20036;-66
2023/09/01 02:30:02;;;;;;;16.15;5.05;;;;;;;-146.27;85.82;82193.34;5048019;28;20032;-66
2023/09/01 02:32:28;;;;;;;8.18;3.72;;;;;;;-146.27;86.05;82195.38;5045676;28;20037;-67
2023/09/01 02:34:53;;;;;;;15.70;4.50;;;;;;;-146.27;85.39;82195.38;5045524;28;20040;-67
2023/09/01 02:37:19;;;;;;;12.85;4.97;;;;;;;-146.27;86.39;82183.31;5052318;28;20103;-66
2023/09/01 02:39:44;;;;;;;11.77;5.00;;;;;;;-146.27;87.05;82193.34;5048826;28;20020;-65
2023/09/01 02:42:09;;;;;;;8.65;5.13;;;;;;;-146.27;86.62;82189.34;5040294;28;20496;-67
2023/09/01 02:44:35;;;;;;;11.60;5.88;;;;;;;-146.27;87.29;82215.44;5052217;28;20040;-67
2023/09/01 02:47:00;;;;;;;15.13;5.72;;;;;;;-146.27;87.29;82215.44;5050508;28;20020;-66
2023/09/01 02:49:25;;;;;;;17.15;7.10;;;;;;;-146.27;87.30;82249.59;5047135;28;20036;-67
2023/09/01 02:51:51;;;;;;;13.73;6.10;;;;;;;-146.27;87.59;82179.28;5045316;28;20033;-67
2023/09/01 02:54:16;;;;;;;14.38;7.55;;;;;;;-146.27;87.86;82199.38;5048078;28;20059;-66
2023/09/01 02:56:42;;;;;;;14.30;7.25;;;;;;;-146.27;87.78;82213.44;5052398;28;20037;-67
2023/09/01 02:59:07;;;;;;;13.63;7.30;;;;;;;-146.27;88.06;82233.53;5046851;28;20760;-66
2023/09/01 03:01:32;;;;;;;11.27;6.22;;;;;;;-146.27;88.08;82253.63;5046831;28;20060;-66
2023/09/01 03:03:58;;;;;;;14.57;6.50;;;;;;;-146.27;88.44;82207.41;5052710;28;20025;-66
2023/09/01 03:06:23;;;;;;;15.48;6.88;;;;;;;-146.27;87.75;82217.47;5035582;28;20037;-67
2023/09/01 03:08:48;;;;;;;15.95;6.55;;;;;;;-146.27;87.75;82235.53;5043090;28;20025;-66
2023/09/01 03:11:14;;;;;;;14.32;6.50;;;;;;;-146.27;88.29;82253.63;5044544;28;20025;-66
2023/09/01 03:13:40;;;;;;;12.43;6.65;;;;;;;-146.27;88.80;82251.59;5052003;28;20456;-67
2023/09/01 03:16:06;;;;;;;15.63;7.10;;;;;;;-146.27;88.37;82227.50;5045890;28;20469;-67
2023/09/01 03:18:32;;;;;;;14.07;6.40;;;;;;;-146.27;88.41;82247.59;5035254;28;20082;-67
2023/09/01 03:21:09;;;;;;;15.05;6.65;;;;;;;-146.27;87.75;82239.56;5033671;28;20560;-67
2023/09/01 03:23:34;;;;;;;16.67;6.32;;;;;;;-146.27;88.08;82197.38;5042480;28;20474;-66
2023/09/01 03:25:59;;;;;;;15.70;7.45;;;;;;;-146.27;87.92;82209.44;5046038;28;20032;-68
2023/09/01 03:28:25;;;;;;;15.32;6.65;;;;;;;-146.27;87.82;82239.56;5037112;28;20022;-66
2023/09/01 03:30:50;;;;;;;11.32;5.47;;;;;;;-146.27;87.95;82227.50;5039740;28;20116;-67
2023/09/01 03:33:16;;;;;;;13.70;6.45;;;;;;;-146.27;88.83;82263.66;5049259;28;20032;-66
2023/09/01 03:35:41;;;;;;;14.15;6.07;;;;;;;-146.27;88.94;82233.53;5042466;28;20032;-67
2023/09/01 03:38:06;;;;;;;12.68;6.03;;;;;;;-146.27;88.53;82225.50;5035583;28;20452;-66
2023/09/01 03:40:34;;;;;;;11.95;6.00;;;;;;;-146.27;88.43;82253.63;5034298;28;20029;-66
2023/09/01 03:43:00;;;;;;;14.18;5.90;;;;;;;-146.27;87.75;82201.38;5043953;28;20029;-66
2023/09/01 03:45:26;;;;;;;16.60;6.82;;;;;;;-146.27;87.67;82241.56;5051517;28;20440;-66
2023/09/01 03:47:52;;;;;;;18.98;8.00;;;;;;;-146.27;86.86;82251.59;5051848;28;20029;-67
2023/09/01 03:50:17;;;;;;;22.55;8.13;;;;;;;-146.27;87.16;82251.59;5044362;28;20033;-67
2023/09/01 03:52:42;;;;;;;13.68;6.28;;;;;;;-146.27;87.42;82229.50;5047300;28;20070;-67
2023/09/01 03:55:08;;;;;;;15.18;7.38;;;;;;;-146.27;87.98;82259.66;5050115;28;20578;-66
2023/09/01 03:57:33;;;;;;;10.60;6.43;;;;;;;-146.27;87.69;82263.66;5041165;28;20557;-66
2023/09/01 03:59:58;;;;;;;20.08;7.10;;;;;;;-146.27;87.85;82261.66;5051230;28;20108;-67
2023/09/01 04:02:24;;;;;;;20.00;7.00;;;;;;;-146.27;88.00;82247.59;5051136;28;20042;-66
2023/09/01 04:04:49;;;;;;;13.32;7.25;;;;;;;-146.27;88.18;82237.53;5040225;28;20089;-67
2023/09/01 04:07:14;;;;;;;18.02;7.63;;;;;;;-146.27;87.87;82271.69;5040975;28;20037;-67
2023/09/01 04:09:40;;;;;;;13.55;7.10;;;;;;;-146.27;87.97;82253.63;5040115;28;20659;-67
2023/09/01 04:12:06;;;;;;;14.52;7.07;;;;;;;-146.27;88.62;82247.59;5036867;28;20029;-66
2023/09/01 04:14:31;;;;;;;15.52;7.53;;;;;;;-146.27;88.58;82273.72;5041673;28;20042;-67
2023/09/01 04:16:57;;;;;;;17.63;9.35;;;;;;;-146.27;88.74;82285.75;5035433;28;20021;-67
2023/09/01 04:19:22;;;;;;;14.32;8.05;;;;;;;-146.27;89.09;82273.72;5047376;28;20417;-68
2023/09/01 04:21:48;;;;;;;14.35;7.40;;;;;;;-146.27;89.39;82295.81;5031664;28;20029;-67
2023/09/01 04:24:13;;;;;;;13.77;7.03;;;;;;;-146.27;89.05;82267.69;5049670;28;20404;-66
2023/09/01 04:26:38;;;;;;;13.65;7.68;;;;;;;-146.27;89.09;82299.81;5045667;28;20052;-67
2023/09/01 04:29:04;;;;;;;12.73;6.88;;;;;;;-146.27;89.21;82245.59;5048907;28;20393;-68
2023/09/01 04:31:30;;;;;;;16.55;7.53;;;;;;;-146.27;88.32;82279.72;5046317;28;20035;-66
2023/09/01 04:33:56;;;;;;;13.77;7.25;;;;;;;-146.27;88.51;82275.72;5037589;28;20063;-68
2023/09/01 04:36:21;;;;;;;15.88;7.68;;;;;;;-146.27;88.97;82267.69;5031555;28;20067;-66
2023/09/01 04:38:47;;;;;;;11.88;6.47;;;;;;;-146.27;89.18;82267.69;5033131;28;20025;-67
2023/09/01 04:41:12;;;;;;;12.15;6.93;;;;;;;-146.27;88.85;82289.78;5046501;28;20029;-66
2023/09/01 04:43:38;;;;;;;15.90;6.93;;;;;;;-146.27;89.14;82283.75;5041900;28;20405;-66
2023/09/01 04:46:04;;;;;;;16.58;7.43;;;;;;;-146.27;89.10;82275.72;5037399;28;20140;-66
2023/09/01 04:48:30;;;;;;;19.33;7.70;;;;;;;-146.27;89.16;82311.88;5038919;28;20394;-67
2023/09/01 04:50:55;;;;;;;15.27;7.25;;;;;;;-146.27;89.01;82333.97;5040229;28;20470;-66
2023/09/01 04:53:21;;;;;;;14.30;7.35;;;;;;;-146.27;89.13;82295.81;5043696;28;20021;-66
2023/09/01 04:55:47;;;;;;;13.23;6.40;;;;;;;-146.27;89.07;82303.84;5049618;28;20154;-66
2023/09/01 04:58:13;;;;;;;13.38;7.07;;;;;;;-146.27;89.29;82340.00;5050632;28;20124;-66
2023/09/01 05:00:39;;;;;;;15.07;7.07;;;;;;;-146.27;89.19;82283.75;5036835;28;20033;-66
2023/09/01 05:03:04;;;;;;;11.77;7.28;;;;;;;-146.27;89.38;82295.81;5047565;28;20033;-67
2023/09/01 05:05:29;;;;;;;20.48;8.05;;;;;;;-146.27;89.59;82271.69;5033581;28;20021;-67
2023/09/01 05:07:56;;;;;;;14.20;7.65;;;;;;;-146.27;88.98;82243.56;5040560;28;20567;-67
2023/09/01 05:10:22;;;;;;;11.93;7.35;;;;;;;-146.27;89.02;82305.84;5047708;28;20025;-67
2023/09/01 05:12:47;;;;;;;14.68;7.35;;;;;;;-146.27;89.56;82261.66;5034703;28;20082;-67
2023/09/01 05:15:12;;;;;;;16.30;7.20;;;;;;;-146.27;89.29;82303.84;5058101;28;20076;-66
2023/09/01 05:17:38;;;;;;;16.70;7.47;;;;;;;-146.27;89.26;82283.75;5038335;28;20401;-66
2023/09/01 05:20:09;;;;;;;12.30;7.15;;;;;;;-146.27;89.42;82267.69;5046635;28;20025;-66
2023/09/01 05:22:35;;;;;;;12.18;6.63;;;;;;;-146.27;89.75;82311.88;5050093;28;20032;-66
2023/09/01 05:25:00;;;;;;;16.33;7.22;;;;;;;-146.27;88.89;82291.78;5049286;28;20016;-67
2023/09/01 05:27:26;;;;;;;12.55;6.85;;;;;;;-146.27;88.96;82287.75;5049213;28;20432;-66
2023/09/01 05:29:52;;;;;;;13.43;7.15;;;;;;;-146.27;89.86;82261.66;5043926;28;20511;-66
2023/09/01 05:32:18;;;;;;;16.25;7.57;;;;;;;-146.27;89.72;82289.78;5032307;28;20024;-64
2023/09/01 05:34:44;;;;;;;20.30;9.18;;;;;;;-146.27;89.75;82277.72;5032904;28;20477;-65
2023/09/01 05:37:11;;;;;;;16.38;6.93;;;;;;;-146.27;89.22;82247.59;5047904;28;20094;-66
2023/09/01 05:39:37;;;;;;;11.95;6.82;;;;;;;-146.27;89.26;82267.69;5047674;28;20029;-66
2023/09/01 05:42:03;;;;;;;15.18;7.05;;;;;;;-146.27;89.35;82283.75;5046926;28;20530;-66
2023/09/01 05:44:29;;;;;;;14.88;6.43;;;;;;;-146.27;88.79;82269.69;5045594;28;20550;-66
2023/09/01 05:46:54;;;;;;;13.55;6.68;;;;;;;-146.27;87.86;82271.69;5045524;28;20074;-66
2023/09/01 05:49:21;;;;;;;13.23;7.38;;;;;;;-146.27;88.38;82287.75;5046279;28;20021;-67
2023/09/01 05:51:47;;;;;;;10.15;6.38;;;;;;;-146.27;88.89;82265.66;5046829;28;20021;-66
2023/09/01 05:54:13;;;;;;;18.40;6.65;;;;;;;-146.27;88.94;82295.81;5037962;28;20067;-67
2023/09/01 05:56:38;;;;;;;16.60;6.40;;;;;;;-146.27;88.16;82279.72;5033541;28;20091;-66
2023/09/01 05:59:03;;;;;;;13.52;7.18;;;;;;;-146.27;88.75;82253.63;5042574;28;20523;-67
2023/09/01 06:01:32;;;;;;;16.70;6.95;;;;;;;-146.27;89.34;82271.69;5044227;28;20067;-66
2023/09/01 06:03:58;;;;;;;14.65;7.13;;;;;;;-146.27;88.57;82229.50;5044661;28;20517;-67
2023/09/01 06:06:24;;;;;;;11.40;6.50;;;;;;;-146.27;88.29;82213.44;5044839;28;20063;-67
2023/09/01 06:08:49;;;;;;;18.02;7.43;;;;;;;-146.27;88.35;82263.66;5041685;28;20067;-67
2023/09/01 06:11:15;;;;;;;12.75;7.05;;;;;;;-146.27;88.72;82259.66;5043043;28;20076;-70
2023/09/01 06:13:40;;;;;;;8.85;5.85;;;;;;;-146.27;88.21;82211.44;5039327;28;20458;-69
2023/09/01 06:16:06;;;;;;;15.05;6.95;;;;;;;-146.27;88.33;82245.59;5043264;28;20040;-71
2023/09/01 06:18:31;;;;;;;20.98;7.50;;;;;;;-146.27;88.47;82235.53;5042982;28;20025;-70
2023/09/01 06:20:56;;;;;;;13.30;6.45;;;;;;;-146.27;89.17;82225.50;5041522;28;20032;-69
2023/09/01 06:23:22;;;;;;;11.15;6.65;;;;;;;-146.27;88.94;82205.41;5037884;28;20028;-70
2023/09/01 06:25:48;;;;;;;20.35;8.05;;;;;;;-146.27;88.91;82213.44;5056970;28;20052;-69
2023/09/01 06:28:13;;;;;;;16.45;6.50;;;;;;;-146.27;89.14;82239.56;5069836;28;20017;-70
2023/09/01 06:30:42;;;;;;;13.65;6.15;;;;;;;-146.27;89.22;82225.50;5067453;28;20036;-71
2023/09/01 06:33:09;;;;;;;9.98;6.07;;;;;;;-146.27;88.89;82217.47;5043505;28;20028;-71
2023/09/01 06:35:34;;;;;;;12.43;6.05;;;;;;;-146.27;89.23;82187.31;5065703;28;20025;-70
2023/09/01 06:38:09;;;;;;;11.88;6.25;;;;;;;-146.27;88.94;82207.41;5043428;28;20362;-70
2023/09/01 06:40:35;;;;;;;10.82;5.57;;;;;;;-146.27;88.97;82215.44;5034320;28;20079;-72
2023/09/01 06:43:02;;;;;;;9.77;5.90;;;;;;;-146.27;88.97;82219.47;5030050;28;20425;-71
2023/09/01 06:45:28;;;;;;;10.57;5.65;;;;;;;-146.27;89.36;82195.38;5032152;28;20030;-71
2023/09/01 06:47:55;;;;;;;15.23;6.22;;;;;;;-146.27;88.86;82247.59;5029986;28;20034;-71
2023/09/01 06:50:24;;;;;;;18.60;6.45;;;;;;;-146.27;88.67;82209.44;5043567;28;20028;-71
2023/09/01 06:52:50;;;;;;;13.35;6.38;;;;;;;-146.27;89.51;82201.38;5044020;28;20428;-71
2023/09/01 06:55:16;;;;;;;10.15;6.53;;;;;;;-146.27;89.69;82185.31;5033145;28;20153;-72
2023/09/01 06:57:41;;;;;;;13.02;6.55;;;;;;;-146.27;89.64;82227.50;5030831;28;20122;-71
2023/09/01 07:00:09;;;;;;;10.70;6.60;;;;;;;-146.27;89.48;82223.47;5029575;28;20023;-72
2023/09/01 07:02:34;;;;;;;12.00;6.13;;;;;;;-146.27;89.22;82177.28;5029568;28;20072;-72
2023/09/01 07:04:59;;;;;;;11.85;6.00;;;;;;;-146.27;88.45;82179.28;5029575;28;20064;-71
2023/09/01 07:07:25;;;;;;;8.35;5.53;;;;;;;-146.27;88.72;82203.41;5046290;28;20039;-71
2023/09/01 07:09:50;;;;;;;9.75;5.35;;;;;;;-146.27;88.63;82151.16;5035971;28;20017;-72
2023/09/01 07:12:16;;;;;;;8.63;5.90;;;;;;;-146.27;88.25;82173.28;5031422;28;20033;-71
2023/09/01 07:14:41;;;;;;;10.73;5.65;;;;;;;-146.27;88.79;82175.28;5047649;28;20080;-73
2023/09/01 07:17:07;;;;;;;13.25;6.15;;;;;;;-146.27;88.85;82185.31;5032919;28;20071;-72
2023/09/01 07:19:32;;;;;;;9.45;5.20;;;;;;;-146.27;88.80;82175.28;5032776;28;20056;-68
2023/09/01 07:21:58;;;;;;;14.98;6.00;;;;;;;-146.27;88.11;82171.25;5033065;28;20057;-68
2023/09/01 07:24:23;;;;;;;8.75;5.53;;;;;;;-146.27;88.18;82191.34;5032927;28;20579;-68
2023/09/01 07:26:48;;;;;;;10.45;5.70;;;;;;;-146.27;88.38;82191.34;5030940;28;20037;-67
2023/09/01 07:29:14;;;;;;;11.20;5.75;;;;;;;-146.27;88.62;82163.22;5032394;28;20488;-69
2023/09/01 07:31:39;;;;;;;12.25;5.95;;;;;;;-146.27;89.00;82155.19;5033089;28;20448;-68
2023/09/01 07:34:05;;;;;;;14.18;6.60;;;;;;;-146.27;88.62;82163.22;5048218;28;20094;-69
2023/09/01 07:36:30;;;;;;;14.77;5.93;;;;;;;-146.27;88.21;82159.22;5034443;28;20029;-70
2023/09/01 07:38:55;;;;;;;11.70;6.22;;;;;;;-146.27;88.53;82167.25;5034012;28;20017;-69
2023/09/01 07:41:21;;;;;;;13.02;5.65;;;;;;;-146.27;88.97;82155.19;5032893;28;20025;-68
2023/09/01 07:43:46;;;;;;;12.48;5.97;;;;;;;-146.27;89.64;82157.19;5033047;28;20397;-69
2023/09/01 07:46:12;;;;;;;14.70;6.07;;;;;;;-146.27;89.51;82155.19;5032088;28;20028;-69
2023/09/01 07:48:37;;;;;;;14.73;5.60;;;;;;;-146.27;89.19;82139.13;5033859;28;20025;-69
2023/09/01 07:51:02;;;;;;;12.57;5.90;;;;;;;-146.27;89.20;82090.91;5032523;28;20025;-70
2023/09/01 07:53:28;;;;;;;14.05;5.85;;;;;;;-146.27;89.42;82145.16;5032565;28;20540;-69
2023/09/01 07:55:53;;;;;;;14.60;6.13;;;;;;;-146.27;88.99;82086.91;5032002;28;20440;-69
2023/09/01 07:58:19;;;;;;;9.48;5.60;;;;;;;-146.27;88.78;82151.16;5045989;28;20432;-69
2023/09/01 08:00:45;;;;;;;13.45;6.00;;;;;;;-146.27;89.16;82149.16;5031957;28;20029;-70
2023/09/01 08:03:10;;;;;;;12.32;6.25;;;;;;;-146.27;89.03;82131.09;5032435;28;20139;-70
2023/09/01 08:05:37;;;;;;;11.13;6.53;;;;;;;-146.27;89.08;82111.00;5031921;28;20040;-69
2023/09/01 08:08:04;;;;;;;14.48;6.90;;;;;;;-146.27;89.35;82161.22;5032228;28;20025;-71
2023/09/01 08:10:29;;;;;;;11.05;6.05;;;;;;;-146.27;89.78;82143.13;5033920;28;20497;-69
2023/09/01 08:12:55;;;;;;;15.25;6.38;;;;;;;-146.27;89.65;82115.00;5032124;28;20029;-69
2023/09/01 08:15:20;;;;;;;15.43;6.43;;;;;;;-146.27;89.30;82098.94;5031935;28;20553;-69
2023/09/01 08:17:46;;;;;;;9.98;6.30;;;;;;;-146.27;89.67;82151.16;5037439;28;20027;-69
2023/09/01 08:20:11;;;;;;;10.88;6.20;;;;;;;-146.27;89.67;82143.13;5044940;28;20036;-68
2023/09/01 08:22:36;;;;;;;12.27;6.20;;;;;;;-146.27;89.36;82123.06;5033033;28;20173;-67
2023/09/01 08:25:03;;;;;;;12.65;6.15;;;;;;;-146.27;89.15;82111.00;5031566;28;20021;-68
2023/09/01 08:27:28;;;;;;;13.50;6.68;;;;;;;-146.27;89.58;82139.13;5031537;28;20037;-69
2023/09/01 08:29:55;;;;;;;8.55;5.95;;;;;;;-146.27;89.72;82125.06;5031599;28;20028;-69
2023/09/01 08:32:20;;;;;;;12.50;6.10;;;;;;;-146.27;89.70;82131.09;5037799;28;20159;-70
2023/09/01 08:34:47;;;;;;;12.65;7.22;;;;;;;-146.27;89.43;82074.84;5044757;28;20116;-70
2023/09/01 08:37:15;;;;;;;10.27;6.63;;;;;;;-146.27;89.18;82133.09;5048129;28;20025;-70
2023/09/01 08:39:41;;;;;;;13.18;6.43;;;;;;;-146.27;89.21;82090.91;5035337;28;20028;-71
2023/09/01 08:42:08;;;;;;;11.68;6.57;;;;;;;-146.27;89.23;82119.03;5038796;28;20416;-70
2023/09/01 08:44:35;;;;;;;10.93;6.70;;;;;;;-146.27;89.16;82119.03;5031067;28;20103;-70
2023/09/01 08:47:02;;;;;;;12.13;6.82;;;;;;;-146.27;89.05;82111.00;5050655;28;20040;-71
2023/09/01 08:49:28;;;;;;;11.60;6.75;;;;;;;-146.27;89.42;82141.13;5042829;28;20041;-72
2023/09/01 08:51:55;;;;;;;15.25;6.70;;;;;;;-146.27;89.70;82123.06;5044300;28;20037;-71
2023/09/01 08:54:21;;;;;;;11.25;6.97;;;;;;;-146.27;89.62;82111.00;5042846;28;20060;-71
2023/09/01 08:56:48;;;;;;;12.65;6.85;;;;;;;-146.27;89.15;82042.69;5042229;28;21105;-71
2023/09/01 08:59:14;;;;;;;12.65;6.75;;;;;;;-146.27;89.38;82072.84;5046054;28;20029;-71
2023/09/01 09:01:39;;;;;;;13.57;6.88;;;;;;;-146.27;89.52;82076.84;5047628;28;20036;-71
2023/09/01 09:04:05;;;;;;;13.73;7.15;;;;;;;-146.27;89.63;82098.94;5045625;28;20108;-71
2023/09/01 09:06:36;;;;;;;10.60;7.22;;;;;;;-146.27;89.48;82106.97;5038286;28;20381;-71
2023/09/01 09:09:14;;;;;;;11.32;7.20;;;;;;;-146.27;89.20;82111.00;5048224;28;20040;-71
2023/09/01 09:11:56;;;;;;;11.30;7.20;;;;;;;-146.27;89.80;82072.84;5047889;28;20028;-71
2023/09/01 09:14:21;;;;;;;14.38;7.22;;;;;;;-146.27;89.50;82129.06;5030864;28;20077;-71
2023/09/01 09:16:54;;;;;;;12.15;7.22;;;;;;;-146.27;89.48;82086.91;5035734;28;20103;-71
2023/09/01 09:19:19;;;;;;;11.48;6.80;;;;;;;-146.27;89.68;82086.91;5038220;28;20029;-71
2023/09/01 09:21:46;;;;;;;14.25;7.13;;;;;;;-146.27;89.42;82086.91;5056530;28;20048;-71
2023/09/01 09:24:11;;;;;;;16.63;7.70;;;;;;;-146.27;89.59;82074.84;5041943;28;20381;-71
2023/09/01 09:26:37;;;;;;;12.00;7.47;;;;;;;-146.27;89.07;82068.81;5050689;28;20021;-70
2023/09/01 09:29:07;;;;;;;11.18;7.43;;;;;;;-146.27;88.85;82022.63;5050028;28;20099;-71
2023/09/01 09:31:39;;;;;;;11.35;7.05;;;;;;;-146.27;88.80;82056.75;5049895;28;20049;-71
2023/09/01 09:34:22;;;;;;;16.52;7.35;;;;;;;-146.27;88.97;82006.53;5038595;28;20043;-71
2023/09/01 09:36:49;;;;;;;11.55;7.82;;;;;;;-146.27;88.89;82026.63;5049170;28;20393;-71
2023/09/01 09:39:22;;;;;;;10.93;7.68;;;;;;;-146.27;88.57;82006.53;5034878;28;20106;-72
2023/09/01 09:41:48;;;;;;;14.05;7.82;;;;;;;-146.27;88.35;82006.53;5038794;28;20592;-72
2023/09/01 09:44:32;;;;;;;11.32;7.32;;;;;;;-146.27;88.29;81972.41;5034849;28;20108;-71
2023/09/01 09:46:58;;;;;;;9.95;7.25;;;;;;;-146.27;88.08;81956.34;5050065;28;20342;-71
2023/09/01 09:49:25;;;;;;;14.48;7.10;;;;;;;-146.27;87.90;81920.19;5040805;28;20035;-71
2023/09/01 09:51:51;;;;;;;12.35;7.50;;;;;;;-146.27;88.17;81890.06;5030248;28;20025;-72
2023/09/01 09:54:22;;;;;;;13.38;8.57;;;;;;;-146.27;86.74;81859.94;5030443;28;20030;-71
2023/09/01 09:56:52;;;;;;;13.90;8.05;;;;;;;-146.27;86.37;81851.88;5035654;28;20098;-71
2023/09/01 09:59:29;;;;;;;10.52;7.47;;;;;;;-146.27;86.44;81869.97;5049971;28;20037;-71
2023/09/01 10:01:57;;;;;;;14.45;8.30;;;;;;;-146.27;86.65;81849.88;5050161;28;20024;-71
2023/09/01 10:04:23;;;;;;;14.50;9.05;;;;;;;-146.27;86.32;81845.88;5049916;28;20025;-71
2023/09/01 10:06:49;;;;;;;14.18;7.97;;;;;;;-146.27;86.88;81857.91;5049341;28;20032;-71
2023/09/01 10:09:17;;;;;;;15.00;7.85;;;;;;;-146.27;86.83;81867.97;5030854;28;20086;-71
2023/09/01 10:11:44;;;;;;;15.30;9.85;;;;;;;-146.27;86.94;81861.94;5029912;28;20025;-71
2023/09/01 10:14:13;;;;;;;15.60;9.30;;;;;;;-146.27;86.95;81876.00;5029536;28;20061;-71
2023/09/01 10:16:40;;;;;;;13.10;8.65;;;;;;;-146.27;86.59;81867.97;5029844;28;20030;-72
2023/09/01 10:19:05;;;;;;;13.85;9.13;;;;;;;-146.27;87.10;81865.94;5029528;28;20033;-71
2023/09/01 10:21:31;;;;;;;13.40;9.20;;;;;;;-146.27;86.89;81817.75;5029608;28;20025;-71
2023/09/01 10:23:56;;;;;;;15.50;9.40;;;;;;;-146.27;86.10;81761.50;5030522;28;20067;-71
2023/09/01 10:26:25;;;;;;;15.82;8.93;;;;;;;-146.27;86.06;81749.47;5028345;28;20152;-71
2023/09/01 10:29:04;;;;;;;14.15;9.15;;;;;;;-146.27;86.10;81723.34;5021862;28;20440;-70
2023/09/01 10:31:31;;;;;;;16.95;8.68;;;;;;;-146.27;85.27;81763.50;5043449;28;20170;-70
2023/09/01 10:34:14;;;;;;;13.63;9.73;;;;;;;-146.27;84.83;81641.00;5049714;28;20036;-70
2023/09/01 10:36:44;;;;;;;13.55;8.77;;;;;;;-146.27;84.11;81665.09;5033976;28;20369;-73
2023/09/01 10:39:18;;;;;;;11.25;8.00;;;;;;;-146.27;84.05;81632.97;5037962;28;20033;-71
2023/09/01 10:42:02;;;;;;;11.73;7.93;;;;;;;-146.27;84.63;81626.94;5029780;28;20481;-70
2023/09/01 10:44:39;;;;;;;8.32;6.93;;;;;;;-146.27;84.25;81598.81;5036233;28;20021;-70
2023/09/01 10:47:32;;;;;;;11.93;9.18;;;;;;;-146.27;84.02;81622.91;5032446;28;20029;-72
2023/09/01 10:49:59;;;;;;;17.00;9.80;;;;;;;-146.27;84.08;81685.19;5038003;28;20080;-72
2023/09/01 10:52:26;;;;;;;11.90;9.25;;;;;;;-146.27;84.15;81645.00;5034947;28;20029;-72
2023/09/01 10:55:03;;;;;;;11.45;9.02;;;;;;;-146.27;84.34;81687.19;5039802;28;20083;-72
2023/09/01 10:57:45;;;;;;;15.30;10.13;;;;;;;-146.27;83.84;81622.91;5041203;28;20049;-71
2023/09/01 11:00:26;;;;;;;13.63;9.05;;;;;;;-146.27;83.80;81610.88;5033488;28;20120;-71
2023/09/01 11:02:52;;;;;;;13.43;9.20;;;;;;;-146.27;84.44;81602.84;5033307;28;20021;-71
2023/09/01 11:05:37;;;;;;;14.80;9.60;;;;;;;-146.27;83.74;81586.78;5037672;28;20033;-71
2023/09/01 11:08:12;;;;;;;15.18;9.10;;;;;;;-146.27;83.80;81606.84;5033167;28;20053;-70
2023/09/01 11:10:38;;;;;;;12.02;9.30;;;;;;;-146.27;84.02;81620.91;5033412;28;20032;-71